sensor_id;sensor_type;location;lat;lon;timestamp;temperature;humidity
18906;DHT22;9585;51.018;4.282;2024-02-14T00:00:45;9.10;99.90
18906;DHT22;9585;51.018;4.282;2024-02-14T00:03:13;9.10;99.90
18906;DHT22;9585;51.018;4.282;2024-02-14T00:05:40;9.10;99.90
18906;DHT22;9585;51.018;4.282;2024-02-14T00:08:08;9.20;99.90
18906;DHT22;9585;51.018;4.282;2024-02-14T00:10:37;9.20;99.90
18906;DHT22;9585;51.018;4.282;2024-02-14T00:13:07;9.20;99.90
18906;DHT22;9585;51.018;4.282;2024-02-14T00:15:35;9.20;99.90
18906;DHT22;9585;51.018;4.282;2024-02-14T00:18:04;9.20;99.90
18906;DHT22;9585;51.018;4.282;2024-02-14T00:20:32;9.20;99.90
18906;DHT22;9585;51.018;4.282;2024-02-14T00:22:59;9.20;99.90
18906;DHT22;9585;51.018;4.282;2024-02-14T00:25:27;9.20;99.90
18906;DHT22;9585;51.018;4.282;2024-02-14T00:27:56;9.20;99.90
18906;DHT22;9585;51.018;4.282;2024-02-14T00:30:28;9.20;99.90
18906;DHT22;9585;51.018;4.282;2024-02-14T00:32:57;9.30;99.90
18906;DHT22;9585;51.018;4.282;2024-02-14T00:35:26;9.30;99.90
18906;DHT22;9585;51.018;4.282;2024-02-14T00:37:54;9.30;99.90
18906;DHT22;9585;51.018;4.282;2024-02-14T00:40:22;9.30;99.90
18906;DHT22;9585;51.018;4.282;2024-02-14T00:42:50;9.30;99.90
18906;DHT22;9585;51.018;4.282;2024-02-14T00:45:18;9.40;99.90
18906;DHT22;9585;51.018;4.282;2024-02-14T00:47:47;9.40;99.90
18906;DHT22;9585;51.018;4.282;2024-02-14T00:50:15;9.40;99.90
18906;DHT22;9585;51.018;4.282;2024-02-14T00:52:43;9.40;99.90
18906;DHT22;9585;51.018;4.282;2024-02-14T00:55:12;9.40;99.90
18906;DHT22;9585;51.018;4.282;2024-02-14T00:57:39;9.40;99.90
18906;DHT22;9585;51.018;4.282;2024-02-14T01:00:08;9.40;99.90
18906;DHT22;9585;51.018;4.282;2024-02-14T01:02:36;9.30;99.90
18906;DHT22;9585;51.018;4.282;2024-02-14T01:05:06;9.40;99.90
18906;DHT22;9585;51.018;4.282;2024-02-14T01:07:35;9.40;99.90
18906;DHT22;9585;51.018;4.282;2024-02-14T01:10:03;9.40;99.90
18906;DHT22;9585;51.018;4.282;2024-02-14T01:12:31;9.40;99.90
18906;DHT22;9585;51.018;4.282;2024-02-14T01:14:58;9.30;99.90
18906;DHT22;9585;51.018;4.282;2024-02-14T01:17:26;9.40;99.90
18906;DHT22;9585;51.018;4.282;2024-02-14T01:19:54;9.40;99.90
18906;DHT22;9585;51.018;4.282;2024-02-14T01:22:24;9.40;99.90
18906;DHT22;9585;51.018;4.282;2024-02-14T01:24:51;9.40;99.90
18906;DHT22;9585;51.018;4.282;2024-02-14T01:27:20;9.40;99.90
18906;DHT22;9585;51.018;4.282;2024-02-14T01:29:48;9.40;99.90
18906;DHT22;9585;51.018;4.282;2024-02-14T01:32:16;9.40;99.90
18906;DHT22;9585;51.018;4.282;2024-02-14T01:34:44;9.50;99.90
18906;DHT22;9585;51.018;4.282;2024-02-14T01:37:12;9.50;99.90
18906;DHT22;9585;51.018;4.282;2024-02-14T01:39:41;9.50;99.90
18906;DHT22;9585;51.018;4.282;2024-02-14T01:42:09;9.50;99.90
18906;DHT22;9585;51.018;4.282;2024-02-14T01:44:36;9.50;99.90
18906;DHT22;9585;51.018;4.282;2024-02-14T01:47:04;9.50;99.90
18906;DHT22;9585;51.018;4.282;2024-02-14T01:49:33;9.50;99.90
18906;DHT22;9585;51.018;4.282;2024-02-14T01:52:03;9.50;99.90
18906;DHT22;9585;51.018;4.282;2024-02-14T01:54:31;9.50;99.90
18906;DHT22;9585;51.018;4.282;2024-02-14T01:57:03;9.40;99.90
18906;DHT22;9585;51.018;4.282;2024-02-14T01:59:32;9.40;99.90
18906;DHT22;9585;51.018;4.282;2024-02-14T02:02:01;9.50;99.90
18906;DHT22;9585;51.018;4.282;2024-02-14T02:04:29;9.40;99.90
18906;DHT22;9585;51.018;4.282;2024-02-14T02:06:57;9.40;99.90
18906;DHT22;9585;51.018;4.282;2024-02-14T02:09:25;9.30;99.90
18906;DHT22;9585;51.018;4.282;2024-02-14T02:11:53;9.30;99.90
18906;DHT22;9585;51.018;4.282;2024-02-14T02:14:23;9.40;99.90
18906;DHT22;9585;51.018;4.282;2024-02-14T02:16:52;9.40;99.90
18906;DHT22;9585;51.018;4.282;2024-02-14T02:19:20;9.40;99.90
18906;DHT22;9585;51.018;4.282;2024-02-14T02:21:47;9.50;99.90
18906;DHT22;9585;51.018;4.282;2024-02-14T02:24:17;9.50;99.90
18906;DHT22;9585;51.018;4.282;2024-02-14T02:26:45;9.50;99.90
18906;DHT22;9585;51.018;4.282;2024-02-14T02:29:13;9.60;99.90
18906;DHT22;9585;51.018;4.282;2024-02-14T02:31:42;9.70;99.90
18906;DHT22;9585;51.018;4.282;2024-02-14T02:34:10;9.70;99.90
18906;DHT22;9585;51.018;4.282;2024-02-14T02:36:38;9.70;99.90
18906;DHT22;9585;51.018;4.282;2024-02-14T02:39:06;9.70;99.90
18906;DHT22;9585;51.018;4.282;2024-02-14T02:41:36;9.70;99.90
18906;DHT22;9585;51.018;4.282;2024-02-14T02:44:04;9.70;99.90
18906;DHT22;9585;51.018;4.282;2024-02-14T02:46:33;9.70;99.90
18906;DHT22;9585;51.018;4.282;2024-02-14T02:49:01;9.70;99.90
18906;DHT22;9585;51.018;4.282;2024-02-14T02:51:29;9.60;99.90
18906;DHT22;9585;51.018;4.282;2024-02-14T02:53:57;9.50;99.90
18906;DHT22;9585;51.018;4.282;2024-02-14T02:56:25;9.40;99.90
18906;DHT22;9585;51.018;4.282;2024-02-14T02:58:56;9.40;99.90
18906;DHT22;9585;51.018;4.282;2024-02-14T03:01:23;9.40;99.90
18906;DHT22;9585;51.018;4.282;2024-02-14T03:03:57;9.40;99.90
18906;DHT22;9585;51.018;4.282;2024-02-14T03:06:24;9.50;99.90
18906;DHT22;9585;51.018;4.282;2024-02-14T03:08:52;9.50;99.90
18906;DHT22;9585;51.018;4.282;2024-02-14T03:11:22;9.50;99.90
18906;DHT22;9585;51.018;4.282;2024-02-14T03:13:51;9.50;99.90
18906;DHT22;9585;51.018;4.282;2024-02-14T03:16:20;9.50;99.90
18906;DHT22;9585;51.018;4.282;2024-02-14T03:18:50;9.50;99.90
18906;DHT22;9585;51.018;4.282;2024-02-14T03:21:19;9.60;99.90
18906;DHT22;9585;51.018;4.282;2024-02-14T03:23:48;9.60;99.90
18906;DHT22;9585;51.018;4.282;2024-02-14T03:26:16;9.60;99.90
18906;DHT22;9585;51.018;4.282;2024-02-14T03:28:44;9.50;99.90
18906;DHT22;9585;51.018;4.282;2024-02-14T03:31:12;9.50;99.90
18906;DHT22;9585;51.018;4.282;2024-02-14T03:33:43;9.50;99.90
18906;DHT22;9585;51.018;4.282;2024-02-14T03:36:11;9.50;99.90
18906;DHT22;9585;51.018;4.282;2024-02-14T03:38:39;9.50;99.90
18906;DHT22;9585;51.018;4.282;2024-02-14T03:41:07;9.50;99.90
18906;DHT22;9585;51.018;4.282;2024-02-14T03:43:35;9.50;99.90
18906;DHT22;9585;51.018;4.282;2024-02-14T03:46:03;9.50;99.90
18906;DHT22;9585;51.018;4.282;2024-02-14T03:48:31;9.50;99.90
18906;DHT22;9585;51.018;4.282;2024-02-14T03:51:01;9.50;99.90
18906;DHT22;9585;51.018;4.282;2024-02-14T03:53:29;9.60;99.90
18906;DHT22;9585;51.018;4.282;2024-02-14T03:55:59;9.60;99.90
18906;DHT22;9585;51.018;4.282;2024-02-14T03:58:27;9.60;99.90
18906;DHT22;9585;51.018;4.282;2024-02-14T04:00:55;9.70;99.90
18906;DHT22;9585;51.018;4.282;2024-02-14T04:03:23;9.70;99.90
18906;DHT22;9585;51.018;4.282;2024-02-14T04:05:50;9.70;99.90
18906;DHT22;9585;51.018;4.282;2024-02-14T04:08:20;9.70;99.90
18906;DHT22;9585;51.018;4.282;2024-02-14T04:10:48;9.80;99.90
18906;DHT22;9585;51.018;4.282;2024-02-14T04:13:17;9.80;99.90
18906;DHT22;9585;51.018;4.282;2024-02-14T04:15:44;9.80;99.90
18906;DHT22;9585;51.018;4.282;2024-02-14T04:18:12;9.80;99.90
18906;DHT22;9585;51.018;4.282;2024-02-14T04:20:40;9.90;99.90
18906;DHT22;9585;51.018;4.282;2024-02-14T04:23:10;9.90;99.90
18906;DHT22;9585;51.018;4.282;2024-02-14T04:25:39;9.90;99.90
18906;DHT22;9585;51.018;4.282;2024-02-14T04:28:07;10.00;99.90
18906;DHT22;9585;51.018;4.282;2024-02-14T04:30:38;10.00;99.90
18906;DHT22;9585;51.018;4.282;2024-02-14T04:33:07;10.00;99.90
18906;DHT22;9585;51.018;4.282;2024-02-14T04:35:35;10.00;99.90
18906;DHT22;9585;51.018;4.282;2024-02-14T04:38:03;10.10;99.90
18906;DHT22;9585;51.018;4.282;2024-02-14T04:40:31;10.00;99.90
18906;DHT22;9585;51.018;4.282;2024-02-14T04:43:00;10.00;99.90
18906;DHT22;9585;51.018;4.282;2024-02-14T04:45:29;10.00;99.90
18906;DHT22;9585;51.018;4.282;2024-02-14T04:47:56;10.00;99.90
18906;DHT22;9585;51.018;4.282;2024-02-14T04:50:24;10.00;99.90
18906;DHT22;9585;51.018;4.282;2024-02-14T04:52:52;10.00;99.90
18906;DHT22;9585;51.018;4.282;2024-02-14T04:55:20;10.10;99.90
18906;DHT22;9585;51.018;4.282;2024-02-14T04:57:48;10.10;99.90
18906;DHT22;9585;51.018;4.282;2024-02-14T05:00:18;10.10;99.90
18906;DHT22;9585;51.018;4.282;2024-02-14T05:02:46;10.10;99.90
18906;DHT22;9585;51.018;4.282;2024-02-14T05:05:14;10.10;99.90
18906;DHT22;9585;51.018;4.282;2024-02-14T05:07:41;10.10;99.90
18906;DHT22;9585;51.018;4.282;2024-02-14T05:10:10;10.20;99.90
18906;DHT22;9585;51.018;4.282;2024-02-14T05:12:37;10.10;99.90
18906;DHT22;9585;51.018;4.282;2024-02-14T05:15:07;10.20;99.90
18906;DHT22;9585;51.018;4.282;2024-02-14T05:17:37;10.20;99.90
18906;DHT22;9585;51.018;4.282;2024-02-14T05:20:06;10.20;99.90
18906;DHT22;9585;51.018;4.282;2024-02-14T05:22:36;10.20;99.90
18906;DHT22;9585;51.018;4.282;2024-02-14T05:25:04;10.30;99.90
18906;DHT22;9585;51.018;4.282;2024-02-14T05:27:33;10.30;99.90
18906;DHT22;9585;51.018;4.282;2024-02-14T05:30:02;10.30;99.90
18906;DHT22;9585;51.018;4.282;2024-02-14T05:32:31;10.30;99.90
18906;DHT22;9585;51.018;4.282;2024-02-14T05:35:01;10.30;99.90
18906;DHT22;9585;51.018;4.282;2024-02-14T05:37:32;10.30;99.90
18906;DHT22;9585;51.018;4.282;2024-02-14T05:39:59;10.30;99.90
18906;DHT22;9585;51.018;4.282;2024-02-14T05:42:28;10.20;99.90
18906;DHT22;9585;51.018;4.282;2024-02-14T05:44:56;10.20;99.90
18906;DHT22;9585;51.018;4.282;2024-02-14T05:47:24;10.20;99.90
18906;DHT22;9585;51.018;4.282;2024-02-14T05:49:52;10.10;99.90
18906;DHT22;9585;51.018;4.282;2024-02-14T05:52:21;10.20;99.90
18906;DHT22;9585;51.018;4.282;2024-02-14T05:54:49;10.20;99.90
18906;DHT22;9585;51.018;4.282;2024-02-14T05:57:17;10.20;99.90
18906;DHT22;9585;51.018;4.282;2024-02-14T05:59:44;10.20;99.90
18906;DHT22;9585;51.018;4.282;2024-02-14T06:02:13;10.10;99.90
18906;DHT22;9585;51.018;4.282;2024-02-14T06:04:40;10.10;99.90
18906;DHT22;9585;51.018;4.282;2024-02-14T06:07:08;10.20;99.90
18906;DHT22;9585;51.018;4.282;2024-02-14T06:09:39;10.10;99.90
18906;DHT22;9585;51.018;4.282;2024-02-14T06:12:07;10.20;99.90
18906;DHT22;9585;51.018;4.282;2024-02-14T06:14:36;10.20;99.90
18906;DHT22;9585;51.018;4.282;2024-02-14T06:17:05;10.20;99.90
18906;DHT22;9585;51.018;4.282;2024-02-14T06:19:33;10.30;99.90
18906;DHT22;9585;51.018;4.282;2024-02-14T06:22:01;10.20;99.90
18906;DHT22;9585;51.018;4.282;2024-02-14T06:24:29;10.20;99.90
18906;DHT22;9585;51.018;4.282;2024-02-14T06:26:58;10.20;99.90
18906;DHT22;9585;51.018;4.282;2024-02-14T06:29:26;10.30;99.90
18906;DHT22;9585;51.018;4.282;2024-02-14T06:31:54;10.30;99.90
18906;DHT22;9585;51.018;4.282;2024-02-14T06:34:22;10.40;99.90
18906;DHT22;9585;51.018;4.282;2024-02-14T06:36:50;10.50;99.90
18906;DHT22;9585;51.018;4.282;2024-02-14T06:39:18;10.50;99.90
18906;DHT22;9585;51.018;4.282;2024-02-14T06:41:46;10.50;99.90
18906;DHT22;9585;51.018;4.282;2024-02-14T06:44:15;10.40;99.90
18906;DHT22;9585;51.018;4.282;2024-02-14T06:46:44;10.50;99.90
18906;DHT22;9585;51.018;4.282;2024-02-14T06:49:12;10.40;99.90
18906;DHT22;9585;51.018;4.282;2024-02-14T06:51:40;10.50;99.90
18906;DHT22;9585;51.018;4.282;2024-02-14T06:54:08;10.50;99.90
18906;DHT22;9585;51.018;4.282;2024-02-14T06:56:35;10.50;99.90
18906;DHT22;9585;51.018;4.282;2024-02-14T06:59:03;10.50;99.90
18906;DHT22;9585;51.018;4.282;2024-02-14T07:01:33;10.50;99.90
18906;DHT22;9585;51.018;4.282;2024-02-14T07:04:01;10.50;99.90
18906;DHT22;9585;51.018;4.282;2024-02-14T07:06:29;10.50;99.90
18906;DHT22;9585;51.018;4.282;2024-02-14T07:08:57;10.60;99.90
18906;DHT22;9585;51.018;4.282;2024-02-14T07:11:25;10.50;99.90
18906;DHT22;9585;51.018;4.282;2024-02-14T07:13:53;10.60;99.90
18906;DHT22;9585;51.018;4.282;2024-02-14T07:16:21;10.60;99.90
18906;DHT22;9585;51.018;4.282;2024-02-14T07:18:51;10.60;99.90
18906;DHT22;9585;51.018;4.282;2024-02-14T07:21:18;10.60;99.90
18906;DHT22;9585;51.018;4.282;2024-02-14T07:23:46;10.60;99.90
18906;DHT22;9585;51.018;4.282;2024-02-14T07:26:14;10.60;99.90
18906;DHT22;9585;51.018;4.282;2024-02-14T07:28:42;10.70;99.90
18906;DHT22;9585;51.018;4.282;2024-02-14T07:31:10;10.70;99.90
18906;DHT22;9585;51.018;4.282;2024-02-14T07:33:38;10.80;99.90
18906;DHT22;9585;51.018;4.282;2024-02-14T07:36:07;10.70;99.90
18906;DHT22;9585;51.018;4.282;2024-02-14T07:38:35;10.80;99.90
18906;DHT22;9585;51.018;4.282;2024-02-14T07:41:03;10.70;99.90
18906;DHT22;9585;51.018;4.282;2024-02-14T07:43:31;10.70;99.90
18906;DHT22;9585;51.018;4.282;2024-02-14T07:45:59;10.80;99.90
18906;DHT22;9585;51.018;4.282;2024-02-14T07:48:27;10.90;99.90
18906;DHT22;9585;51.018;4.282;2024-02-14T07:50:55;10.90;99.90
18906;DHT22;9585;51.018;4.282;2024-02-14T07:53:26;10.90;99.90
18906;DHT22;9585;51.018;4.282;2024-02-14T07:55:54;11.00;99.90
18906;DHT22;9585;51.018;4.282;2024-02-14T07:58:22;10.90;99.90
18906;DHT22;9585;51.018;4.282;2024-02-14T08:00:50;11.00;99.90
18906;DHT22;9585;51.018;4.282;2024-02-14T08:03:18;11.00;99.90
18906;DHT22;9585;51.018;4.282;2024-02-14T08:05:46;11.00;99.90
18906;DHT22;9585;51.018;4.282;2024-02-14T08:08:14;10.90;99.90
18906;DHT22;9585;51.018;4.282;2024-02-14T08:10:44;10.90;99.90
18906;DHT22;9585;51.018;4.282;2024-02-14T08:13:14;10.90;99.90
18906;DHT22;9585;51.018;4.282;2024-02-14T08:15:43;10.90;99.90
18906;DHT22;9585;51.018;4.282;2024-02-14T08:18:12;10.90;99.90
18906;DHT22;9585;51.018;4.282;2024-02-14T08:20:39;10.90;99.90
18906;DHT22;9585;51.018;4.282;2024-02-14T08:23:07;10.90;99.90
18906;DHT22;9585;51.018;4.282;2024-02-14T08:25:35;11.00;99.90
18906;DHT22;9585;51.018;4.282;2024-02-14T08:28:05;11.00;99.90
18906;DHT22;9585;51.018;4.282;2024-02-14T08:30:33;11.10;99.90
18906;DHT22;9585;51.018;4.282;2024-02-14T08:33:01;11.10;99.90
18906;DHT22;9585;51.018;4.282;2024-02-14T08:35:29;11.10;99.90
18906;DHT22;9585;51.018;4.282;2024-02-14T08:37:57;11.20;99.90
18906;DHT22;9585;51.018;4.282;2024-02-14T08:40:25;11.20;99.90
18906;DHT22;9585;51.018;4.282;2024-02-14T08:42:57;11.20;99.90
18906;DHT22;9585;51.018;4.282;2024-02-14T08:45:26;11.30;99.90
18906;DHT22;9585;51.018;4.282;2024-02-14T08:47:56;11.20;99.90
18906;DHT22;9585;51.018;4.282;2024-02-14T08:50:24;11.30;99.90
18906;DHT22;9585;51.018;4.282;2024-02-14T08:52:52;11.30;99.90
18906;DHT22;9585;51.018;4.282;2024-02-14T08:55:19;11.30;99.90
18906;DHT22;9585;51.018;4.282;2024-02-14T08:57:47;11.30;99.90
18906;DHT22;9585;51.018;4.282;2024-02-14T09:00:16;11.50;99.90
18906;DHT22;9585;51.018;4.282;2024-02-14T09:02:48;11.50;99.90
18906;DHT22;9585;51.018;4.282;2024-02-14T09:05:16;11.50;99.90
18906;DHT22;9585;51.018;4.282;2024-02-14T09:07:45;11.50;99.90
18906;DHT22;9585;51.018;4.282;2024-02-14T09:10:12;11.40;99.90
18906;DHT22;9585;51.018;4.282;2024-02-14T09:12:40;11.50;99.90
18906;DHT22;9585;51.018;4.282;2024-02-14T09:15:11;11.50;99.90
18906;DHT22;9585;51.018;4.282;2024-02-14T09:17:40;11.60;99.90
18906;DHT22;9585;51.018;4.282;2024-02-14T09:20:11;11.70;99.90
18906;DHT22;9585;51.018;4.282;2024-02-14T09:22:40;11.80;99.90
18906;DHT22;9585;51.018;4.282;2024-02-14T09:25:09;11.70;99.90
18906;DHT22;9585;51.018;4.282;2024-02-14T09:27:37;11.70;99.90
18906;DHT22;9585;51.018;4.282;2024-02-14T09:30:06;11.70;99.90
18906;DHT22;9585;51.018;4.282;2024-02-14T09:32:34;11.80;99.90
18906;DHT22;9585;51.018;4.282;2024-02-14T09:35:02;11.80;99.90
18906;DHT22;9585;51.018;4.282;2024-02-14T09:37:35;11.90;99.90
18906;DHT22;9585;51.018;4.282;2024-02-14T09:40:05;11.80;99.90
18906;DHT22;9585;51.018;4.282;2024-02-14T09:42:38;11.70;99.90
18906;DHT22;9585;51.018;4.282;2024-02-14T09:45:08;11.70;99.90
18906;DHT22;9585;51.018;4.282;2024-02-14T09:47:37;11.70;99.90
18906;DHT22;9585;51.018;4.282;2024-02-14T09:50:08;11.80;99.90
18906;DHT22;9585;51.018;4.282;2024-02-14T09:52:39;11.80;99.90
18906;DHT22;9585;51.018;4.282;2024-02-14T09:55:09;11.80;99.90
18906;DHT22;9585;51.018;4.282;2024-02-14T09:57:42;11.80;99.90
18906;DHT22;9585;51.018;4.282;2024-02-14T10:00:10;11.80;99.90
18906;DHT22;9585;51.018;4.282;2024-02-14T10:02:40;11.80;99.90
18906;DHT22;9585;51.018;4.282;2024-02-14T10:05:08;11.90;99.90
18906;DHT22;9585;51.018;4.282;2024-02-14T10:07:43;11.90;99.90
18906;DHT22;9585;51.018;4.282;2024-02-14T10:10:13;11.80;99.90
18906;DHT22;9585;51.018;4.282;2024-02-14T10:12:42;11.90;99.90
18906;DHT22;9585;51.018;4.282;2024-02-14T10:15:10;12.00;99.90
18906;DHT22;9585;51.018;4.282;2024-02-14T10:17:39;12.00;99.90
18906;DHT22;9585;51.018;4.282;2024-02-14T10:20:09;12.00;99.90
18906;DHT22;9585;51.018;4.282;2024-02-14T10:22:38;12.00;99.90
18906;DHT22;9585;51.018;4.282;2024-02-14T10:25:08;12.00;99.90
18906;DHT22;9585;51.018;4.282;2024-02-14T10:27:36;12.10;99.90
18906;DHT22;9585;51.018;4.282;2024-02-14T10:30:06;12.10;99.90
18906;DHT22;9585;51.018;4.282;2024-02-14T10:32:36;12.10;99.90
18906;DHT22;9585;51.018;4.282;2024-02-14T10:35:05;12.00;99.90
18906;DHT22;9585;51.018;4.282;2024-02-14T10:37:38;12.00;99.90
18906;DHT22;9585;51.018;4.282;2024-02-14T10:40:09;12.00;99.90
18906;DHT22;9585;51.018;4.282;2024-02-14T10:42:37;11.90;99.90
18906;DHT22;9585;51.018;4.282;2024-02-14T10:45:06;12.00;99.90
18906;DHT22;9585;51.018;4.282;2024-02-14T10:47:35;12.00;99.90
18906;DHT22;9585;51.018;4.282;2024-02-14T10:50:06;12.10;99.90
18906;DHT22;9585;51.018;4.282;2024-02-14T10:52:40;12.00;99.90
18906;DHT22;9585;51.018;4.282;2024-02-14T10:55:11;12.00;99.90
18906;DHT22;9585;51.018;4.282;2024-02-14T10:57:40;12.00;99.90
18906;DHT22;9585;51.018;4.282;2024-02-14T11:00:10;12.00;99.90
18906;DHT22;9585;51.018;4.282;2024-02-14T11:02:41;12.00;99.90
18906;DHT22;9585;51.018;4.282;2024-02-14T11:05:14;12.00;99.90
18906;DHT22;9585;51.018;4.282;2024-02-14T11:07:50;12.00;99.90
18906;DHT22;9585;51.018;4.282;2024-02-14T11:10:24;11.90;99.90
18906;DHT22;9585;51.018;4.282;2024-02-14T11:12:54;11.90;99.90
18906;DHT22;9585;51.018;4.282;2024-02-14T11:15:26;11.90;99.90
18906;DHT22;9585;51.018;4.282;2024-02-14T11:18:04;11.90;99.90
18906;DHT22;9585;51.018;4.282;2024-02-14T11:20:35;11.90;99.90
18906;DHT22;9585;51.018;4.282;2024-02-14T11:23:05;12.00;99.90
18906;DHT22;9585;51.018;4.282;2024-02-14T11:25:38;12.00;99.90
18906;DHT22;9585;51.018;4.282;2024-02-14T11:28:16;12.00;99.90
18906;DHT22;9585;51.018;4.282;2024-02-14T11:30:46;12.00;99.90
18906;DHT22;9585;51.018;4.282;2024-02-14T11:33:18;12.00;99.90
18906;DHT22;9585;51.018;4.282;2024-02-14T11:35:47;12.00;99.90
18906;DHT22;9585;51.018;4.282;2024-02-14T11:38:19;12.00;99.90
18906;DHT22;9585;51.018;4.282;2024-02-14T11:40:49;12.00;99.90
18906;DHT22;9585;51.018;4.282;2024-02-14T11:43:19;12.10;99.90
18906;DHT22;9585;51.018;4.282;2024-02-14T11:45:47;12.10;99.90
18906;DHT22;9585;51.018;4.282;2024-02-14T11:48:18;12.10;99.90
18906;DHT22;9585;51.018;4.282;2024-02-14T11:50:47;12.10;99.90
18906;DHT22;9585;51.018;4.282;2024-02-14T11:53:15;12.10;99.90
18906;DHT22;9585;51.018;4.282;2024-02-14T11:55:45;12.10;99.90
18906;DHT22;9585;51.018;4.282;2024-02-14T11:58:17;12.20;99.90
18906;DHT22;9585;51.018;4.282;2024-02-14T12:00:46;12.30;99.90
18906;DHT22;9585;51.018;4.282;2024-02-14T12:03:18;12.40;99.90
18906;DHT22;9585;51.018;4.282;2024-02-14T12:05:47;12.40;99.90
18906;DHT22;9585;51.018;4.282;2024-02-14T12:08:16;12.40;99.90
18906;DHT22;9585;51.018;4.282;2024-02-14T12:10:45;12.50;99.90
18906;DHT22;9585;51.018;4.282;2024-02-14T12:13:19;12.50;99.90
18906;DHT22;9585;51.018;4.282;2024-02-14T12:15:48;12.50;99.90
18906;DHT22;9585;51.018;4.282;2024-02-14T12:18:18;12.60;99.90
18906;DHT22;9585;51.018;4.282;2024-02-14T12:20:47;12.60;99.90
18906;DHT22;9585;51.018;4.282;2024-02-14T12:23:18;12.70;99.90
18906;DHT22;9585;51.018;4.282;2024-02-14T12:25:46;12.60;99.90
18906;DHT22;9585;51.018;4.282;2024-02-14T12:28:18;12.50;99.90
18906;DHT22;9585;51.018;4.282;2024-02-14T12:30:49;12.50;99.90
18906;DHT22;9585;51.018;4.282;2024-02-14T12:33:22;12.50;99.90
18906;DHT22;9585;51.018;4.282;2024-02-14T12:35:52;12.60;99.90
18906;DHT22;9585;51.018;4.282;2024-02-14T12:38:21;12.60;99.90
18906;DHT22;9585;51.018;4.282;2024-02-14T12:40:50;12.60;99.90
18906;DHT22;9585;51.018;4.282;2024-02-14T12:43:21;12.60;99.90
18906;DHT22;9585;51.018;4.282;2024-02-14T12:45:49;12.70;99.90
18906;DHT22;9585;51.018;4.282;2024-02-14T12:48:24;12.80;99.90
18906;DHT22;9585;51.018;4.282;2024-02-14T12:50:52;12.80;99.90
18906;DHT22;9585;51.018;4.282;2024-02-14T12:53:21;12.80;99.90
18906;DHT22;9585;51.018;4.282;2024-02-14T12:55:49;12.70;99.90
18906;DHT22;9585;51.018;4.282;2024-02-14T12:58:16;12.80;99.90
18906;DHT22;9585;51.018;4.282;2024-02-14T13:00:50;12.80;99.90
18906;DHT22;9585;51.018;4.282;2024-02-14T13:03:18;12.80;99.90
18906;DHT22;9585;51.018;4.282;2024-02-14T13:05:46;12.80;99.90
18906;DHT22;9585;51.018;4.282;2024-02-14T13:08:14;12.70;99.90
18906;DHT22;9585;51.018;4.282;2024-02-14T13:10:44;12.70;99.90
18906;DHT22;9585;51.018;4.282;2024-02-14T13:13:12;12.70;99.90
18906;DHT22;9585;51.018;4.282;2024-02-14T13:15:40;12.70;99.90
18906;DHT22;9585;51.018;4.282;2024-02-14T13:18:11;12.60;99.90
18906;DHT22;9585;51.018;4.282;2024-02-14T13:20:40;12.70;99.90
18906;DHT22;9585;51.018;4.282;2024-02-14T13:23:10;12.60;99.90
18906;DHT22;9585;51.018;4.282;2024-02-14T13:25:43;12.60;99.90
18906;DHT22;9585;51.018;4.282;2024-02-14T13:28:12;12.60;99.90
18906;DHT22;9585;51.018;4.282;2024-02-14T13:30:42;12.70;99.90
18906;DHT22;9585;51.018;4.282;2024-02-14T13:33:17;12.80;99.90
18906;DHT22;9585;51.018;4.282;2024-02-14T13:35:54;12.80;99.90
18906;DHT22;9585;51.018;4.282;2024-02-14T13:38:22;12.80;99.90
18906;DHT22;9585;51.018;4.282;2024-02-14T13:40:50;12.80;99.90
18906;DHT22;9585;51.018;4.282;2024-02-14T13:43:19;12.70;99.90
18906;DHT22;9585;51.018;4.282;2024-02-14T13:45:47;12.70;99.90
18906;DHT22;9585;51.018;4.282;2024-02-14T13:48:17;12.70;99.90
18906;DHT22;9585;51.018;4.282;2024-02-14T13:50:45;12.80;99.90
18906;DHT22;9585;51.018;4.282;2024-02-14T13:53:13;12.70;99.90
18906;DHT22;9585;51.018;4.282;2024-02-14T13:55:42;12.70;99.90
18906;DHT22;9585;51.018;4.282;2024-02-14T13:58:10;12.70;99.90
18906;DHT22;9585;51.018;4.282;2024-02-14T14:00:43;12.60;99.90
18906;DHT22;9585;51.018;4.282;2024-02-14T14:03:10;12.60;99.90
18906;DHT22;9585;51.018;4.282;2024-02-14T14:05:41;12.60;99.90
18906;DHT22;9585;51.018;4.282;2024-02-14T14:08:09;12.70;99.90
18906;DHT22;9585;51.018;4.282;2024-02-14T14:10:37;12.70;99.90
18906;DHT22;9585;51.018;4.282;2024-02-14T14:13:06;12.70;99.90
18906;DHT22;9585;51.018;4.282;2024-02-14T14:15:34;12.80;99.90
18906;DHT22;9585;51.018;4.282;2024-02-14T14:18:02;12.80;99.90
18906;DHT22;9585;51.018;4.282;2024-02-14T14:20:30;12.80;99.90
18906;DHT22;9585;51.018;4.282;2024-02-14T14:23:00;12.80;99.90
18906;DHT22;9585;51.018;4.282;2024-02-14T14:25:29;12.90;99.90
18906;DHT22;9585;51.018;4.282;2024-02-14T14:27:58;13.00;99.90
18906;DHT22;9585;51.018;4.282;2024-02-14T14:30:26;13.00;99.90
18906;DHT22;9585;51.018;4.282;2024-02-14T14:32:54;13.00;99.90
18906;DHT22;9585;51.018;4.282;2024-02-14T14:35:22;13.00;99.90
18906;DHT22;9585;51.018;4.282;2024-02-14T14:37:50;13.00;99.90
18906;DHT22;9585;51.018;4.282;2024-02-14T14:40:20;13.10;99.90
18906;DHT22;9585;51.018;4.282;2024-02-14T14:42:48;13.10;99.90
18906;DHT22;9585;51.018;4.282;2024-02-14T14:45:16;13.10;99.90
18906;DHT22;9585;51.018;4.282;2024-02-14T14:47:45;13.10;99.90
18906;DHT22;9585;51.018;4.282;2024-02-14T14:50:14;13.20;99.90
18906;DHT22;9585;51.018;4.282;2024-02-14T14:52:44;13.20;99.90
18906;DHT22;9585;51.018;4.282;2024-02-14T14:55:12;13.30;99.90
18906;DHT22;9585;51.018;4.282;2024-02-14T14:57:42;13.40;99.90
18906;DHT22;9585;51.018;4.282;2024-02-14T15:00:11;13.30;99.90
18906;DHT22;9585;51.018;4.282;2024-02-14T15:02:39;13.30;99.90
18906;DHT22;9585;51.018;4.282;2024-02-14T15:05:09;13.30;99.90
18906;DHT22;9585;51.018;4.282;2024-02-14T15:07:37;13.30;99.90
18906;DHT22;9585;51.018;4.282;2024-02-14T15:10:06;13.30;99.90
18906;DHT22;9585;51.018;4.282;2024-02-14T15:12:37;13.30;99.90
18906;DHT22;9585;51.018;4.282;2024-02-14T15:15:07;13.40;99.90
18906;DHT22;9585;51.018;4.282;2024-02-14T15:17:35;13.40;99.90
18906;DHT22;9585;51.018;4.282;2024-02-14T15:20:04;13.40;99.90
18906;DHT22;9585;51.018;4.282;2024-02-14T15:22:32;13.40;99.90
18906;DHT22;9585;51.018;4.282;2024-02-14T15:25:00;13.40;99.90
18906;DHT22;9585;51.018;4.282;2024-02-14T15:27:29;13.40;99.90
18906;DHT22;9585;51.018;4.282;2024-02-14T15:29:58;13.50;99.90
18906;DHT22;9585;51.018;4.282;2024-02-14T15:32:45;13.40;99.90
18906;DHT22;9585;51.018;4.282;2024-02-14T15:35:29;13.30;99.90
18906;DHT22;9585;51.018;4.282;2024-02-14T15:37:57;13.40;99.90
18906;DHT22;9585;51.018;4.282;2024-02-14T15:40:26;13.40;99.90
18906;DHT22;9585;51.018;4.282;2024-02-14T15:42:54;13.40;99.90
18906;DHT22;9585;51.018;4.282;2024-02-14T15:45:22;13.40;99.90
18906;DHT22;9585;51.018;4.282;2024-02-14T15:47:51;13.30;99.90
18906;DHT22;9585;51.018;4.282;2024-02-14T15:50:19;13.20;99.90
18906;DHT22;9585;51.018;4.282;2024-02-14T15:52:49;13.30;99.90
18906;DHT22;9585;51.018;4.282;2024-02-14T15:55:17;13.20;99.90
18906;DHT22;9585;51.018;4.282;2024-02-14T15:57:45;13.20;99.90
18906;DHT22;9585;51.018;4.282;2024-02-14T16:00:14;13.10;99.90